TGW255 WIPP-WSSS
Flight info
| Callsign | TGW255 |
|---|---|
| Flight time | 0h 55m |
| Altitude | 34000 |
| Route | PARDI G579 REPOV REPOV2B |
| Aircraft | A20N/M-SDE2E3FGHIRWXY/LB1 |
Departure
| Time | 2026-05-07 09:38 |
|---|---|
| Airport | Sultan Mahmud Badaruddin II Airport (WIPP) |
Arrival
| Time | 2026-05-07 10:34 |
|---|---|
| Airport | Singapore Changi Airport (WSSS) |
| Time | Latitude | Longitude | Altitude | Speed | Heading |
|---|---|---|---|---|---|
| 2026-05-07 09:14 | -2.89584 | 104.70381 | 70 ft | 0 kts | 21° |
| 2026-05-07 09:28 | -2.89588 | 104.70380 | 42 ft | 2 kts | 21° |
| 2026-05-07 09:28 | -2.89598 | 104.70376 | 42 ft | 2 kts | 21° |
| 2026-05-07 09:28 | -2.89611 | 104.70370 | 42 ft | 3 kts | 21° |
| 2026-05-07 09:29 | -2.89625 | 104.70362 | 40 ft | 2 kts | 26° |
| 2026-05-07 09:29 | -2.89641 | 104.70361 | 42 ft | 2 kts | 316° |
| 2026-05-07 09:29 | -2.89646 | 104.70366 | 38 ft | 0 kts | 291° |
| 2026-05-07 09:31 | -2.89645 | 104.70364 | 39 ft | 2 kts | 287° |
| 2026-05-07 09:32 | -2.89640 | 104.70325 | 43 ft | 9 kts | 275° |
| 2026-05-07 09:32 | -2.89659 | 104.70249 | 43 ft | 14 kts | 229° |
| 2026-05-07 09:32 | -2.89725 | 104.70196 | 44 ft | 13 kts | 253° |
| 2026-05-07 09:32 | -2.89695 | 104.70097 | 41 ft | 17 kts | 294° |
| 2026-05-07 09:33 | -2.89642 | 104.69966 | 45 ft | 23 kts | 291° |
| 2026-05-07 09:33 | -2.89575 | 104.69810 | 46 ft | 26 kts | 292° |
| 2026-05-07 09:33 | -2.89508 | 104.69650 | 45 ft | 23 kts | 292° |
| 2026-05-07 09:33 | -2.89451 | 104.69513 | 44 ft | 21 kts | 291° |
| 2026-05-07 09:34 | -2.89455 | 104.69469 | 45 ft | 2 kts | 233° |
| 2026-05-07 09:34 | -2.89454 | 104.69450 | 48 ft | 4 kts | 314° |
| 2026-05-07 09:34 | -2.89394 | 104.69380 | 49 ft | 16 kts | 295° |
| 2026-05-07 09:34 | -2.89354 | 104.69282 | 49 ft | 14 kts | 293° |
| 2026-05-07 09:35 | -2.89316 | 104.69201 | 50 ft | 12 kts | 295° |
| 2026-05-07 09:35 | -2.89285 | 104.69130 | 51 ft | 11 kts | 290° |
| 2026-05-07 09:35 | -2.89263 | 104.69063 | 51 ft | 11 kts | 274° |
| 2026-05-07 09:35 | -2.89302 | 104.69001 | 52 ft | 0 kts | 206° |
| 2026-05-07 09:36 | -2.89309 | 104.68997 | 52 ft | 3 kts | 205° |
| 2026-05-07 09:36 | -2.89359 | 104.68979 | 52 ft | 9 kts | 193° |
| 2026-05-07 09:37 | -2.89409 | 104.68994 | 50 ft | 8 kts | 116° |
| 2026-05-07 09:37 | -2.89447 | 104.69077 | 48 ft | 32 kts | 112° |
| 2026-05-07 09:37 | -2.89619 | 104.69494 | 45 ft | 96 kts | 112° |
| 2026-05-07 09:37 | -2.89968 | 104.70262 | 46 ft | 145 kts | 106° |
| 2026-05-07 09:38 | -2.90242 | 104.71195 | 499 ft | 132 kts | 93° |
| 2026-05-07 09:38 | -2.90465 | 104.72071 | 816 ft | 134 kts | 101° |
| 2026-05-07 09:38 | -2.90685 | 104.73023 | 986 ft | 151 kts | 98° |
| 2026-05-07 09:38 | -2.90987 | 104.74107 | 1049 ft | 171 kts | 96° |
| 2026-05-07 09:39 | -2.91289 | 104.75293 | 1346 ft | 175 kts | 94° |
| 2026-05-07 09:39 | -2.91580 | 104.76442 | 1797 ft | 171 kts | 105° |
| 2026-05-07 09:39 | -2.91993 | 104.77611 | 2073 ft | 190 kts | 110° |
| 2026-05-07 09:39 | -2.92430 | 104.78912 | 2388 ft | 206 kts | 103° |
| 2026-05-07 09:40 | -2.92905 | 104.80337 | 2661 ft | 226 kts | 112° |
| 2026-05-07 09:40 | -2.93508 | 104.81866 | 2924 ft | 244 kts | 112° |
| 2026-05-07 09:40 | -2.94133 | 104.83482 | 3289 ft | 253 kts | 111° |
| 2026-05-07 09:40 | -2.94564 | 104.85191 | 3729 ft | 258 kts | 90° |
| 2026-05-07 09:41 | -2.94021 | 104.86908 | 4143 ft | 268 kts | 56° |
| 2026-05-07 09:41 | -2.92543 | 104.88047 | 4605 ft | 276 kts | 21° |
| 2026-05-07 09:41 | -2.90625 | 104.88188 | 5018 ft | 283 kts | 348° |
| 2026-05-07 09:41 | -2.88754 | 104.87539 | 5561 ft | 287 kts | 341° |
| 2026-05-07 09:42 | -2.86839 | 104.86934 | 6320 ft | 289 kts | 347° |
| 2026-05-07 09:42 | -2.84872 | 104.86526 | 7109 ft | 289 kts | 352° |
| 2026-05-07 09:42 | -2.82879 | 104.86267 | 7922 ft | 290 kts | 356° |
| 2026-05-07 09:42 | -2.80853 | 104.86100 | 8742 ft | 293 kts | 358° |
| 2026-05-07 09:43 | -2.78811 | 104.85983 | 9476 ft | 295 kts | 357° |
| 2026-05-07 09:43 | -2.76834 | 104.85425 | 9879 ft | 300 kts | 330° |
| 2026-05-07 09:43 | -2.75281 | 104.84049 | 10006 ft | 306 kts | 313° |
| 2026-05-07 09:43 | -2.73893 | 104.82426 | 10031 ft | 308 kts | 311° |
| 2026-05-07 09:44 | -2.72464 | 104.80790 | 10194 ft | 318 kts | 313° |
| 2026-05-07 09:44 | -2.70921 | 104.79116 | 10451 ft | 337 kts | 314° |
| 2026-05-07 09:44 | -2.69264 | 104.77390 | 10815 ft | 350 kts | 315° |
| 2026-05-07 09:44 | -2.67544 | 104.75636 | 11361 ft | 355 kts | 316° |
| 2026-05-07 09:45 | -2.65795 | 104.73870 | 11960 ft | 359 kts | 316° |
| 2026-05-07 09:45 | -2.64021 | 104.72091 | 12559 ft | 363 kts | 316° |
| 2026-05-07 09:45 | -2.62217 | 104.70303 | 13158 ft | 367 kts | 317° |
| 2026-05-07 09:45 | -2.60582 | 104.68334 | 13729 ft | 372 kts | 301° |
| 2026-05-07 09:46 | -2.59282 | 104.66084 | 14286 ft | 375 kts | 301° |
| 2026-05-07 09:46 | -2.57968 | 104.63817 | 14861 ft | 377 kts | 301° |
| 2026-05-07 09:46 | -2.56643 | 104.61546 | 15454 ft | 379 kts | 301° |
| 2026-05-07 09:46 | -2.55385 | 104.59213 | 16020 ft | 383 kts | 297° |
| 2026-05-07 09:47 | -2.53895 | 104.57015 | 16560 ft | 383 kts | 317° |
| 2026-05-07 09:47 | -2.51704 | 104.55527 | 17092 ft | 383 kts | 339° |
| 2026-05-07 09:47 | -2.49156 | 104.54960 | 17601 ft | 381 kts | 0° |
| 2026-05-07 09:47 | -2.46509 | 104.55257 | 17910 ft | 388 kts | 12° |
| 2026-05-07 09:48 | -2.43800 | 104.55630 | 18114 ft | 399 kts | 6° |
| 2026-05-07 09:48 | -2.40981 | 104.55699 | 18282 ft | 410 kts | 360° |
| 2026-05-07 09:48 | -2.38095 | 104.55506 | 18438 ft | 420 kts | 355° |
| 2026-05-07 09:48 | -2.35165 | 104.55146 | 18581 ft | 429 kts | 353° |
| 2026-05-07 09:49 | -2.32184 | 104.54688 | 18722 ft | 437 kts | 352° |
| 2026-05-07 09:49 | -2.29160 | 104.54172 | 18861 ft | 443 kts | 351° |
| 2026-05-07 09:49 | -2.26109 | 104.53624 | 19095 ft | 447 kts | 351° |
| 2026-05-07 09:49 | -2.23038 | 104.53059 | 19361 ft | 449 kts | 351° |
| 2026-05-07 09:50 | -2.19954 | 104.52485 | 19597 ft | 451 kts | 351° |
| 2026-05-07 09:50 | -2.16872 | 104.51906 | 19987 ft | 449 kts | 351° |
| 2026-05-07 09:50 | -2.13819 | 104.51331 | 20471 ft | 445 kts | 351° |
| 2026-05-07 09:50 | -2.10787 | 104.50759 | 20964 ft | 441 kts | 351° |
| 2026-05-07 09:51 | -2.07783 | 104.50192 | 21471 ft | 438 kts | 351° |
| 2026-05-07 09:51 | -2.04834 | 104.49636 | 21969 ft | 436 kts | 351° |
| 2026-05-07 09:51 | -2.01860 | 104.49074 | 22488 ft | 433 kts | 351° |
| 2026-05-07 09:51 | -1.98907 | 104.48516 | 23017 ft | 431 kts | 351° |
| 2026-05-07 09:52 | -1.95959 | 104.47960 | 23522 ft | 429 kts | 351° |
| 2026-05-07 09:52 | -1.93030 | 104.47407 | 23973 ft | 428 kts | 351° |
| 2026-05-07 09:52 | -1.90108 | 104.46855 | 24418 ft | 426 kts | 351° |
| 2026-05-07 09:52 | -1.87199 | 104.46305 | 24881 ft | 425 kts | 351° |
| 2026-05-07 09:53 | -1.84295 | 104.45757 | 25346 ft | 425 kts | 351° |
| 2026-05-07 09:53 | -1.81384 | 104.45208 | 25827 ft | 424 kts | 351° |
| 2026-05-07 09:53 | -1.78491 | 104.44661 | 26312 ft | 423 kts | 351° |
| 2026-05-07 09:53 | -1.75637 | 104.44122 | 26800 ft | 421 kts | 351° |
| 2026-05-07 09:54 | -1.72764 | 104.43580 | 27306 ft | 420 kts | 351° |
| 2026-05-07 09:54 | -1.69901 | 104.43039 | 27821 ft | 418 kts | 351° |
| 2026-05-07 09:54 | -1.67052 | 104.42501 | 28336 ft | 415 kts | 351° |
| 2026-05-07 09:54 | -1.64220 | 104.41966 | 28868 ft | 412 kts | 351° |
| 2026-05-07 09:55 | -1.61411 | 104.41436 | 29402 ft | 409 kts | 351° |
| 2026-05-07 09:55 | -1.58629 | 104.40910 | 29933 ft | 405 kts | 351° |
| 2026-05-07 09:55 | -1.55866 | 104.40389 | 30362 ft | 403 kts | 351° |
| 2026-05-07 09:55 | -1.53125 | 104.39871 | 30788 ft | 400 kts | 351° |
| 2026-05-07 09:56 | -1.50399 | 104.39357 | 31221 ft | 396 kts | 351° |
| 2026-05-07 09:56 | -1.47702 | 104.38847 | 31661 ft | 393 kts | 351° |
| 2026-05-07 09:56 | -1.45030 | 104.38343 | 32093 ft | 389 kts | 351° |
| 2026-05-07 09:56 | -1.42387 | 104.37844 | 32558 ft | 384 kts | 351° |
| 2026-05-07 09:57 | -1.39761 | 104.37348 | 32872 ft | 384 kts | 351° |
| 2026-05-07 09:57 | -1.37131 | 104.36852 | 33113 ft | 385 kts | 351° |
| 2026-05-07 09:57 | -1.34502 | 104.36356 | 33368 ft | 385 kts | 351° |
| 2026-05-07 09:57 | -1.31866 | 104.35859 | 33619 ft | 386 kts | 351° |
| 2026-05-07 09:58 | -1.29216 | 104.35359 | 33765 ft | 389 kts | 351° |
| 2026-05-07 09:58 | -1.23796 | 104.34338 | 33783 ft | 404 kts | 351° |
| 2026-05-07 09:59 | -1.18176 | 104.33278 | 33785 ft | 419 kts | 351° |
| 2026-05-07 09:59 | -1.12346 | 104.32178 | 33784 ft | 433 kts | 351° |
| 2026-05-07 10:00 | -1.06358 | 104.31047 | 33786 ft | 448 kts | 352° |
| 2026-05-07 10:00 | -1.00133 | 104.29873 | 33783 ft | 462 kts | 351° |
| 2026-05-07 10:01 | -0.93772 | 104.28672 | 33778 ft | 467 kts | 351° |
| 2026-05-07 10:01 | -0.87380 | 104.27465 | 33777 ft | 467 kts | 351° |
| 2026-05-07 10:02 | -0.80986 | 104.26258 | 33776 ft | 466 kts | 351° |
| 2026-05-07 10:02 | -0.74607 | 104.25054 | 33777 ft | 466 kts | 351° |
| 2026-05-07 10:03 | -0.68284 | 104.23861 | 33779 ft | 466 kts | 351° |
| 2026-05-07 10:03 | -0.61898 | 104.22656 | 33780 ft | 466 kts | 351° |
| 2026-05-07 10:04 | -0.55527 | 104.21445 | 33775 ft | 466 kts | 350° |
| 2026-05-07 10:04 | -0.49172 | 104.20185 | 33774 ft | 466 kts | 350° |
| 2026-05-07 10:05 | -0.42809 | 104.18920 | 33777 ft | 466 kts | 350° |
| 2026-05-07 10:05 | -0.37532 | 104.17872 | 33777 ft | 466 kts | 350° |
| 2026-05-07 10:06 | -0.31168 | 104.16608 | 33751 ft | 466 kts | 350° |
| 2026-05-07 10:06 | -0.27996 | 104.15979 | 33240 ft | 464 kts | 350° |
| 2026-05-07 10:06 | -0.24814 | 104.15347 | 32456 ft | 468 kts | 350° |
| 2026-05-07 10:06 | -0.21611 | 104.14712 | 31680 ft | 471 kts | 350° |
| 2026-05-07 10:07 | -0.18387 | 104.14072 | 30942 ft | 474 kts | 350° |
| 2026-05-07 10:07 | -0.15142 | 104.13428 | 30221 ft | 476 kts | 350° |
| 2026-05-07 10:07 | -0.11891 | 104.12783 | 29534 ft | 476 kts | 350° |
| 2026-05-07 10:07 | -0.08659 | 104.12141 | 28962 ft | 471 kts | 350° |
| 2026-05-07 10:08 | -0.05468 | 104.11507 | 28266 ft | 464 kts | 350° |
| 2026-05-07 10:08 | -0.02318 | 104.10881 | 27554 ft | 459 kts | 350° |
| 2026-05-07 10:08 | 0.00755 | 104.10271 | 27107 ft | 449 kts | 350° |
| 2026-05-07 10:08 | 0.03765 | 104.09673 | 26800 ft | 433 kts | 350° |
| 2026-05-07 10:09 | 0.06673 | 104.09095 | 26431 ft | 420 kts | 350° |
| 2026-05-07 10:09 | 0.09509 | 104.08532 | 25874 ft | 412 kts | 350° |
| 2026-05-07 10:09 | 0.12308 | 104.07977 | 25268 ft | 407 kts | 350° |
| 2026-05-07 10:09 | 0.15074 | 104.07428 | 24656 ft | 403 kts | 350° |
| 2026-05-07 10:10 | 0.17802 | 104.06887 | 24049 ft | 398 kts | 350° |
| 2026-05-07 10:10 | 0.20507 | 104.06350 | 23455 ft | 394 kts | 350° |
| 2026-05-07 10:10 | 0.23186 | 104.05819 | 22764 ft | 390 kts | 350° |
| 2026-05-07 10:10 | 0.25837 | 104.05293 | 22071 ft | 386 kts | 350° |
| 2026-05-07 10:11 | 0.28462 | 104.04772 | 21401 ft | 382 kts | 350° |
| 2026-05-07 10:11 | 0.31057 | 104.04257 | 20949 ft | 378 kts | 350° |
| 2026-05-07 10:11 | 0.33640 | 104.03746 | 20818 ft | 377 kts | 350° |
| 2026-05-07 10:11 | 0.36159 | 104.03245 | 20785 ft | 365 kts | 350° |
| 2026-05-07 10:12 | 0.38657 | 104.02750 | 20572 ft | 365 kts | 350° |
| 2026-05-07 10:12 | 0.41148 | 104.02256 | 19959 ft | 362 kts | 350° |
| 2026-05-07 10:12 | 0.43582 | 104.01773 | 19566 ft | 352 kts | 350° |
| 2026-05-07 10:12 | 0.45931 | 104.01307 | 19102 ft | 346 kts | 350° |
| 2026-05-07 10:13 | 0.48279 | 104.00841 | 18585 ft | 342 kts | 350° |
| 2026-05-07 10:13 | 0.50605 | 104.00380 | 18050 ft | 339 kts | 350° |
| 2026-05-07 10:13 | 0.52910 | 103.99923 | 17443 ft | 336 kts | 350° |
| 2026-05-07 10:13 | 0.55192 | 103.99471 | 16839 ft | 333 kts | 350° |
| 2026-05-07 10:14 | 0.57458 | 103.99022 | 16264 ft | 330 kts | 350° |
| 2026-05-07 10:14 | 0.59699 | 103.98577 | 15693 ft | 327 kts | 350° |
| 2026-05-07 10:14 | 0.61921 | 103.98137 | 15142 ft | 324 kts | 350° |
| 2026-05-07 10:14 | 0.64128 | 103.97699 | 14595 ft | 322 kts | 350° |
| 2026-05-07 10:15 | 0.66321 | 103.97264 | 14107 ft | 321 kts | 350° |
| 2026-05-07 10:15 | 0.68504 | 103.96832 | 13741 ft | 319 kts | 350° |
| 2026-05-07 10:15 | 0.70672 | 103.96402 | 13356 ft | 316 kts | 350° |
| 2026-05-07 10:15 | 0.72824 | 103.95985 | 12934 ft | 314 kts | 356° |
| 2026-05-07 10:16 | 0.74949 | 103.96265 | 12467 ft | 309 kts | 23° |
| 2026-05-07 10:16 | 0.76878 | 103.97194 | 12053 ft | 307 kts | 29° |
| 2026-05-07 10:16 | 0.78762 | 103.98174 | 11664 ft | 305 kts | 28° |
| 2026-05-07 10:16 | 0.80664 | 103.99107 | 11280 ft | 303 kts | 27° |
| 2026-05-07 10:17 | 0.82550 | 103.99980 | 10901 ft | 302 kts | 26° |
| 2026-05-07 10:17 | 0.84462 | 104.00832 | 10522 ft | 300 kts | 25° |
| 2026-05-07 10:17 | 0.86373 | 104.01664 | 10161 ft | 299 kts | 25° |
| 2026-05-07 10:17 | 0.88281 | 104.02484 | 9782 ft | 297 kts | 25° |
| 2026-05-07 10:18 | 0.90179 | 104.03293 | 9380 ft | 296 kts | 24° |
| 2026-05-07 10:18 | 0.92067 | 104.04095 | 8959 ft | 294 kts | 24° |
| 2026-05-07 10:18 | 0.93946 | 104.04892 | 8547 ft | 293 kts | 24° |
| 2026-05-07 10:18 | 0.95815 | 104.05684 | 8150 ft | 291 kts | 24° |
| 2026-05-07 10:19 | 0.97675 | 104.06471 | 7760 ft | 289 kts | 24° |
| 2026-05-07 10:19 | 0.99522 | 104.07252 | 7375 ft | 288 kts | 24° |
| 2026-05-07 10:19 | 1.01363 | 104.08031 | 7075 ft | 285 kts | 24° |
| 2026-05-07 10:19 | 1.03185 | 104.08802 | 6998 ft | 284 kts | 24° |
| 2026-05-07 10:20 | 1.05010 | 104.09574 | 7002 ft | 285 kts | 24° |
| 2026-05-07 10:20 | 1.06841 | 104.10348 | 6993 ft | 286 kts | 24° |
| 2026-05-07 10:20 | 1.08670 | 104.11122 | 6992 ft | 286 kts | 24° |
| 2026-05-07 10:20 | 1.10500 | 104.11896 | 6972 ft | 285 kts | 24° |
| 2026-05-07 10:21 | 1.12300 | 104.12657 | 6665 ft | 281 kts | 24° |
| 2026-05-07 10:21 | 1.14074 | 104.13409 | 6281 ft | 274 kts | 24° |
| 2026-05-07 10:21 | 1.15812 | 104.14149 | 5801 ft | 270 kts | 24° |
| 2026-05-07 10:21 | 1.17536 | 104.14883 | 5301 ft | 268 kts | 24° |
| 2026-05-07 10:22 | 1.19249 | 104.15613 | 4801 ft | 267 kts | 24° |
| 2026-05-07 10:22 | 1.20951 | 104.16339 | 4326 ft | 266 kts | 23° |
| 2026-05-07 10:22 | 1.22645 | 104.17061 | 4045 ft | 263 kts | 23° |
| 2026-05-07 10:22 | 1.24375 | 104.17630 | 3991 ft | 262 kts | 9° |
| 2026-05-07 10:23 | 1.26194 | 104.17760 | 3993 ft | 263 kts | 1° |
| 2026-05-07 10:23 | 1.28024 | 104.17776 | 3989 ft | 264 kts | 0° |
| 2026-05-07 10:23 | 1.29834 | 104.17776 | 3982 ft | 252 kts | 0° |
| 2026-05-07 10:23 | 1.31550 | 104.17775 | 3984 ft | 242 kts | 0° |
| 2026-05-07 10:24 | 1.33198 | 104.17774 | 4015 ft | 239 kts | 0° |
| 2026-05-07 10:24 | 1.34864 | 104.17773 | 3998 ft | 240 kts | 0° |
| 2026-05-07 10:24 | 1.36544 | 104.17772 | 3679 ft | 241 kts | 0° |
| 2026-05-07 10:24 | 1.38180 | 104.17773 | 3423 ft | 228 kts | 0° |
| 2026-05-07 10:25 | 1.39739 | 104.17777 | 3085 ft | 220 kts | 0° |
| 2026-05-07 10:25 | 1.41254 | 104.17784 | 2673 ft | 216 kts | 0° |
| 2026-05-07 10:25 | 1.42756 | 104.17792 | 2501 ft | 217 kts | 0° |
| 2026-05-07 10:25 | 1.44264 | 104.17800 | 2485 ft | 217 kts | 0° |
| 2026-05-07 10:26 | 1.45771 | 104.17808 | 2484 ft | 216 kts | 0° |
| 2026-05-07 10:26 | 1.47272 | 104.17815 | 2486 ft | 216 kts | 0° |
| 2026-05-07 10:26 | 1.48756 | 104.17822 | 2481 ft | 217 kts | 0° |
| 2026-05-07 10:26 | 1.50244 | 104.17636 | 2477 ft | 217 kts | 336° |
| 2026-05-07 10:27 | 1.51367 | 104.16750 | 2468 ft | 199 kts | 305° |
| 2026-05-07 10:27 | 1.52075 | 104.15571 | 2488 ft | 200 kts | 296° |
| 2026-05-07 10:27 | 1.52707 | 104.14314 | 2489 ft | 204 kts | 295° |
| 2026-05-07 10:27 | 1.53331 | 104.13040 | 2482 ft | 204 kts | 295° |
| 2026-05-07 10:28 | 1.53959 | 104.11759 | 2493 ft | 204 kts | 295° |
| 2026-05-07 10:28 | 1.54582 | 104.10485 | 2481 ft | 205 kts | 295° |
| 2026-05-07 10:28 | 1.55165 | 104.09188 | 2473 ft | 204 kts | 284° |
| 2026-05-07 10:28 | 1.55108 | 104.07819 | 2467 ft | 192 kts | 247° |
| 2026-05-07 10:29 | 1.54489 | 104.06742 | 2458 ft | 173 kts | 232° |
| 2026-05-07 10:29 | 1.53778 | 104.05802 | 2483 ft | 168 kts | 225° |
| 2026-05-07 10:29 | 1.53066 | 104.04869 | 2478 ft | 169 kts | 222° |
| 2026-05-07 10:30 | 1.51041 | 104.04105 | 2405 ft | 164 kts | 180° |
| 2026-05-07 10:30 | 1.49907 | 104.03912 | 2469 ft | 166 kts | 195° |
| 2026-05-07 10:30 | 1.48808 | 104.03550 | 2475 ft | 166 kts | 199° |
| 2026-05-07 10:30 | 1.47739 | 104.03142 | 2471 ft | 167 kts | 201° |
| 2026-05-07 10:31 | 1.46623 | 104.02790 | 2385 ft | 171 kts | 191° |
| 2026-05-07 10:31 | 1.45474 | 104.02396 | 2022 ft | 175 kts | 201° |
| 2026-05-07 10:31 | 1.44453 | 104.01748 | 1748 ft | 169 kts | 216° |
| 2026-05-07 10:31 | 1.43454 | 104.01190 | 1359 ft | 170 kts | 196° |
| 2026-05-07 10:32 | 1.42305 | 104.00839 | 971 ft | 168 kts | 193° |
| 2026-05-07 10:32 | 1.41258 | 104.00491 | 779 ft | 148 kts | 199° |
| 2026-05-07 10:32 | 1.40370 | 104.00112 | 614 ft | 129 kts | 202° |
| 2026-05-07 10:32 | 1.39572 | 103.99767 | 464 ft | 124 kts | 201° |
| 2026-05-07 10:33 | 1.38797 | 103.99373 | 374 ft | 133 kts | 200° |
| 2026-05-07 10:33 | 1.37977 | 103.99026 | 160 ft | 124 kts | 197° |
| 2026-05-07 10:33 | 1.37092 | 103.98671 | 33 ft | 154 kts | 197° |
| 2026-05-07 10:33 | 1.36385 | 103.98371 | 33 ft | 74 kts | 206° |
| 2026-05-07 10:34 | 1.36066 | 103.98277 | 31 ft | 21 kts | 180° |
| 2026-05-07 10:34 | 1.35950 | 103.98285 | 31 ft | 19 kts | 172° |
| 2026-05-07 10:34 | 1.35897 | 103.98294 | 31 ft | 2 kts | 170° |
| 2026-05-07 10:34 | 1.35855 | 103.98299 | 30 ft | 8 kts | 176° |
| 2026-05-07 10:35 | 1.35810 | 103.98326 | 29 ft | 8 kts | 76° |
| 2026-05-07 10:35 | 1.35878 | 103.98352 | 29 ft | 14 kts | 18° |
| 2026-05-07 10:35 | 1.35983 | 103.98400 | 29 ft | 13 kts | 22° |
| 2026-05-07 10:35 | 1.35991 | 103.98403 | 29 ft | 2 kts | 22° |
| 2026-05-07 10:36 | 1.35994 | 103.98404 | 29 ft | 1 kts | 22° |
| 2026-05-07 10:36 | 1.36045 | 103.98427 | 29 ft | 20 kts | 23° |
| 2026-05-07 10:36 | 1.36177 | 103.98482 | 30 ft | 16 kts | 18° |
| 2026-05-07 10:36 | 1.36281 | 103.98525 | 29 ft | 3 kts | 20° |